sensor_id;sensor_type;location;lat;lon;timestamp;P1;durP1;ratioP1;P2;durP2;ratioP2
24867;SDS011;12941;48.698;9.310;2023-08-21T00:00:06;5.9;;;4.5;;
24867;SDS011;12941;48.698;9.310;2023-08-21T00:01:06;5.9;;;4.5;;
24867;SDS011;12941;48.698;9.310;2023-08-21T00:02:11;5.9;;;4.5;;
24867;SDS011;12941;48.698;9.310;2023-08-21T00:03:11;5.9;;;4.5;;
24867;SDS011;12941;48.698;9.310;2023-08-21T00:04:11;5.9;;;4.5;;
24867;SDS011;12941;48.698;9.310;2023-08-21T00:05:16;5.3;;;4.8;;
24867;SDS011;12941;48.698;9.310;2023-08-21T00:06:16;5.3;;;4.8;;
24867;SDS011;12941;48.698;9.310;2023-08-21T00:07:22;5.3;;;4.8;;
24867;SDS011;12941;48.698;9.310;2023-08-21T00:08:21;5.3;;;4.8;;
24867;SDS011;12941;48.698;9.310;2023-08-21T00:09:21;5.3;;;4.8;;
24867;SDS011;12941;48.698;9.310;2023-08-21T00:10:21;6.7;;;4.9;;
24867;SDS011;12941;48.698;9.310;2023-08-21T00:11:21;6.7;;;4.9;;
24867;SDS011;12941;48.698;9.310;2023-08-21T00:12:21;6.7;;;4.9;;
24867;SDS011;12941;48.698;9.310;2023-08-21T00:13:21;6.7;;;4.9;;
24867;SDS011;12941;48.698;9.310;2023-08-21T00:14:26;6.7;;;4.9;;
24867;SDS011;12941;48.698;9.310;2023-08-21T00:15:26;5.7;;;4.8;;
24867;SDS011;12941;48.698;9.310;2023-08-21T00:16:31;5.7;;;4.8;;
24867;SDS011;12941;48.698;9.310;2023-08-21T00:17:36;5.7;;;4.8;;
24867;SDS011;12941;48.698;9.310;2023-08-21T00:18:36;5.7;;;4.8;;
24867;SDS011;12941;48.698;9.310;2023-08-21T00:19:41;5.7;;;4.8;;
24867;SDS011;12941;48.698;9.310;2023-08-21T00:20:41;6;;;5.2;;
24867;SDS011;12941;48.698;9.310;2023-08-21T00:21:46;6;;;5.2;;
24867;SDS011;12941;48.698;9.310;2023-08-21T00:22:46;6;;;5.2;;
24867;SDS011;12941;48.698;9.310;2023-08-21T00:23:46;6;;;5.2;;
24867;SDS011;12941;48.698;9.310;2023-08-21T00:24:51;6;;;5.2;;
24867;SDS011;12941;48.698;9.310;2023-08-21T00:25:56;7.2;;;4.9;;
24867;SDS011;12941;48.698;9.310;2023-08-21T00:27:01;7.2;;;4.9;;
24867;SDS011;12941;48.698;9.310;2023-08-21T00:28:01;7.2;;;4.9;;
24867;SDS011;12941;48.698;9.310;2023-08-21T00:29:01;7.2;;;4.9;;
24867;SDS011;12941;48.698;9.310;2023-08-21T00:30:01;5.8;;;5;;
24867;SDS011;12941;48.698;9.310;2023-08-21T00:31:06;5.9;;;4.9;;
24867;SDS011;12941;48.698;9.310;2023-08-21T00:32:11;5.9;;;4.9;;
24867;SDS011;12941;48.698;9.310;2023-08-21T00:33:16;5.9;;;4.9;;
24867;SDS011;12941;48.698;9.310;2023-08-21T00:34:21;5.9;;;4.9;;
24867;SDS011;12941;48.698;9.310;2023-08-21T00:35:26;6.9;;;4.8;;
24867;SDS011;12941;48.698;9.310;2023-08-21T00:36:26;6.9;;;4.8;;
24867;SDS011;12941;48.698;9.310;2023-08-21T00:37:31;6.9;;;4.8;;
24867;SDS011;12941;48.698;9.310;2023-08-21T00:38:31;6.9;;;4.8;;
24867;SDS011;12941;48.698;9.310;2023-08-21T00:39:36;6.9;;;4.8;;
24867;SDS011;12941;48.698;9.310;2023-08-21T00:40:36;6;;;4.9;;
24867;SDS011;12941;48.698;9.310;2023-08-21T00:41:36;6;;;4.9;;
24867;SDS011;12941;48.698;9.310;2023-08-21T00:42:41;6;;;4.9;;
24867;SDS011;12941;48.698;9.310;2023-08-21T00:43:46;6;;;4.9;;
24867;SDS011;12941;48.698;9.310;2023-08-21T00:44:46;6;;;4.9;;
24867;SDS011;12941;48.698;9.310;2023-08-21T00:45:51;5.4;;;4.9;;
24867;SDS011;12941;48.698;9.310;2023-08-21T00:46:51;5.4;;;4.9;;
24867;SDS011;12941;48.698;9.310;2023-08-21T00:47:51;5.4;;;4.9;;
24867;SDS011;12941;48.698;9.310;2023-08-21T00:48:56;5.4;;;4.9;;
24867;SDS011;12941;48.698;9.310;2023-08-21T00:50:02;5.8;;;5.3;;
24867;SDS011;12941;48.698;9.310;2023-08-21T00:51:06;5.8;;;5.2;;
24867;SDS011;12941;48.698;9.310;2023-08-21T00:52:07;5.8;;;5.2;;
24867;SDS011;12941;48.698;9.310;2023-08-21T00:53:06;5.8;;;5.2;;
24867;SDS011;12941;48.698;9.310;2023-08-21T00:54:12;5.8;;;5.2;;
24867;SDS011;12941;48.698;9.310;2023-08-21T00:55:16;5.9;;;5.2;;
24867;SDS011;12941;48.698;9.310;2023-08-21T00:56:16;5.9;;;5.2;;
24867;SDS011;12941;48.698;9.310;2023-08-21T00:57:16;5.9;;;5.2;;
24867;SDS011;12941;48.698;9.310;2023-08-21T00:58:17;5.9;;;5.2;;
24867;SDS011;12941;48.698;9.310;2023-08-21T00:59:22;5.9;;;5.2;;
24867;SDS011;12941;48.698;9.310;2023-08-21T01:00:26;6.3;;;5.5;;
24867;SDS011;12941;48.698;9.310;2023-08-21T01:01:26;6.3;;;5.5;;
24867;SDS011;12941;48.698;9.310;2023-08-21T01:02:26;6.3;;;5.5;;
24867;SDS011;12941;48.698;9.310;2023-08-21T01:03:31;6.3;;;5.5;;
24867;SDS011;12941;48.698;9.310;2023-08-21T01:04:31;6.3;;;5.5;;
24867;SDS011;12941;48.698;9.310;2023-08-21T01:05:31;7.8;;;5.4;;
24867;SDS011;12941;48.698;9.310;2023-08-21T01:06:31;7.8;;;5.4;;
24867;SDS011;12941;48.698;9.310;2023-08-21T01:07:31;7.8;;;5.4;;
24867;SDS011;12941;48.698;9.310;2023-08-21T01:08:40;7.8;;;5.4;;
24867;SDS011;12941;48.698;9.310;2023-08-21T01:09:33;7.8;;;5.4;;
24867;SDS011;12941;48.698;9.310;2023-08-21T01:10:35;6.9;;;5.3;;
24867;SDS011;12941;48.698;9.310;2023-08-21T01:11:34;6.9;;;5.3;;
24867;SDS011;12941;48.698;9.310;2023-08-21T01:12:37;6.9;;;5.3;;
24867;SDS011;12941;48.698;9.310;2023-08-21T01:13:40;6.9;;;5.3;;
24867;SDS011;12941;48.698;9.310;2023-08-21T01:14:39;6.9;;;5.3;;
24867;SDS011;12941;48.698;9.310;2023-08-21T01:15:41;6;;;4.8;;
24867;SDS011;12941;48.698;9.310;2023-08-21T01:16:42;6;;;4.8;;
24867;SDS011;12941;48.698;9.310;2023-08-21T01:17:47;6;;;4.8;;
24867;SDS011;12941;48.698;9.310;2023-08-21T01:18:52;6;;;4.8;;
24867;SDS011;12941;48.698;9.310;2023-08-21T01:19:52;6;;;4.8;;
24867;SDS011;12941;48.698;9.310;2023-08-21T01:20:52;7.3;;;5.4;;
24867;SDS011;12941;48.698;9.310;2023-08-21T01:21:57;7.3;;;5.4;;
24867;SDS011;12941;48.698;9.310;2023-08-21T01:23:03;7.3;;;5.4;;
24867;SDS011;12941;48.698;9.310;2023-08-21T01:24:02;7.3;;;5.4;;
24867;SDS011;12941;48.698;9.310;2023-08-21T01:25:02;6.2;;;5.5;;
24867;SDS011;12941;48.698;9.310;2023-08-21T01:26:07;6.1;;;5.4;;
24867;SDS011;12941;48.698;9.310;2023-08-21T01:27:12;6.1;;;5.4;;
24867;SDS011;12941;48.698;9.310;2023-08-21T01:28:12;6.1;;;5.4;;
24867;SDS011;12941;48.698;9.310;2023-08-21T01:29:17;6.1;;;5.4;;
24867;SDS011;12941;48.698;9.310;2023-08-21T01:30:22;5.8;;;5.2;;
24867;SDS011;12941;48.698;9.310;2023-08-21T01:31:28;5.8;;;5.2;;
24867;SDS011;12941;48.698;9.310;2023-08-21T01:32:29;5.8;;;5.2;;
24867;SDS011;12941;48.698;9.310;2023-08-21T01:33:33;5.8;;;5.2;;
24867;SDS011;12941;48.698;9.310;2023-08-21T01:34:37;5.8;;;5.2;;
24867;SDS011;12941;48.698;9.310;2023-08-21T01:35:37;7.1;;;5.3;;
24867;SDS011;12941;48.698;9.310;2023-08-21T01:36:37;7.1;;;5.3;;
24867;SDS011;12941;48.698;9.310;2023-08-21T01:37:42;7.1;;;5.3;;
24867;SDS011;12941;48.698;9.310;2023-08-21T01:38:42;7.1;;;5.3;;
24867;SDS011;12941;48.698;9.310;2023-08-21T01:39:42;7.1;;;5.3;;
24867;SDS011;12941;48.698;9.310;2023-08-21T01:40:47;8.2;;;5.7;;
24867;SDS011;12941;48.698;9.310;2023-08-21T01:41:47;8.2;;;5.7;;
24867;SDS011;12941;48.698;9.310;2023-08-21T01:42:52;8.2;;;5.7;;
24867;SDS011;12941;48.698;9.310;2023-08-21T01:43:52;8.2;;;5.7;;
24867;SDS011;12941;48.698;9.310;2023-08-21T01:44:57;8.2;;;5.7;;
24867;SDS011;12941;48.698;9.310;2023-08-21T01:45:57;8;;;6.4;;
24867;SDS011;12941;48.698;9.310;2023-08-21T01:46:57;8;;;6.4;;
24867;SDS011;12941;48.698;9.310;2023-08-21T01:47:57;8;;;6.4;;
24867;SDS011;12941;48.698;9.310;2023-08-21T01:48:57;8;;;6.4;;
24867;SDS011;12941;48.698;9.310;2023-08-21T01:50:02;8.2;;;6.1;;
24867;SDS011;12941;48.698;9.310;2023-08-21T01:51:07;8.1;;;6;;
24867;SDS011;12941;48.698;9.310;2023-08-21T01:52:07;8.1;;;6;;
24867;SDS011;12941;48.698;9.310;2023-08-21T01:53:07;8.1;;;6;;
24867;SDS011;12941;48.698;9.310;2023-08-21T01:54:12;8.1;;;6;;
24867;SDS011;12941;48.698;9.310;2023-08-21T01:55:12;7.3;;;6.5;;
24867;SDS011;12941;48.698;9.310;2023-08-21T01:56:12;7.3;;;6.5;;
24867;SDS011;12941;48.698;9.310;2023-08-21T01:57:17;7.3;;;6.5;;
24867;SDS011;12941;48.698;9.310;2023-08-21T01:58:17;7.3;;;6.5;;
24867;SDS011;12941;48.698;9.310;2023-08-21T01:59:17;7.3;;;6.5;;
24867;SDS011;12941;48.698;9.310;2023-08-21T02:00:17;7.4;;;6.2;;
24867;SDS011;12941;48.698;9.310;2023-08-21T02:01:17;7.4;;;6.2;;
24867;SDS011;12941;48.698;9.310;2023-08-21T02:02:17;7.4;;;6.2;;
24867;SDS011;12941;48.698;9.310;2023-08-21T02:03:17;7.4;;;6.2;;
24867;SDS011;12941;48.698;9.310;2023-08-21T02:04:22;7.4;;;6.2;;
24867;SDS011;12941;48.698;9.310;2023-08-21T02:05:23;6.7;;;5.9;;
24867;SDS011;12941;48.698;9.310;2023-08-21T02:06:27;6.7;;;5.9;;
24867;SDS011;12941;48.698;9.310;2023-08-21T02:07:32;6.7;;;5.9;;
24867;SDS011;12941;48.698;9.310;2023-08-21T02:08:37;6.7;;;5.9;;
24867;SDS011;12941;48.698;9.310;2023-08-21T02:09:42;6.7;;;5.9;;
24867;SDS011;12941;48.698;9.310;2023-08-21T02:10:48;7.8;;;5.3;;
24867;SDS011;12941;48.698;9.310;2023-08-21T02:11:47;7.8;;;5.3;;
24867;SDS011;12941;48.698;9.310;2023-08-21T02:12:52;7.8;;;5.3;;
24867;SDS011;12941;48.698;9.310;2023-08-21T02:13:52;7.8;;;5.3;;
24867;SDS011;12941;48.698;9.310;2023-08-21T02:14:57;7.8;;;5.3;;
24867;SDS011;12941;48.698;9.310;2023-08-21T02:15:57;6.9;;;5.7;;
24867;SDS011;12941;48.698;9.310;2023-08-21T02:16:57;6.9;;;5.7;;
24867;SDS011;12941;48.698;9.310;2023-08-21T02:17:57;6.9;;;5.7;;
24867;SDS011;12941;48.698;9.310;2023-08-21T02:19:02;6.9;;;5.7;;
24867;SDS011;12941;48.698;9.310;2023-08-21T02:20:06;7.7;;;5.6;;
24867;SDS011;12941;48.698;9.310;2023-08-21T02:21:07;7.7;;;5.6;;
24867;SDS011;12941;48.698;9.310;2023-08-21T02:22:12;7.7;;;5.6;;
24867;SDS011;12941;48.698;9.310;2023-08-21T02:23:12;7.7;;;5.6;;
24867;SDS011;12941;48.698;9.310;2023-08-21T02:24:12;7.7;;;5.6;;
24867;SDS011;12941;48.698;9.310;2023-08-21T02:25:17;6.2;;;5.3;;
24867;SDS011;12941;48.698;9.310;2023-08-21T02:26:17;6.2;;;5.3;;
24867;SDS011;12941;48.698;9.310;2023-08-21T02:27:17;6.2;;;5.3;;
24867;SDS011;12941;48.698;9.310;2023-08-21T02:28:22;6.2;;;5.3;;
24867;SDS011;12941;48.698;9.310;2023-08-21T02:29:27;6.2;;;5.3;;
24867;SDS011;12941;48.698;9.310;2023-08-21T02:30:27;7.6;;;6;;
24867;SDS011;12941;48.698;9.310;2023-08-21T02:31:27;7.6;;;6;;
24867;SDS011;12941;48.698;9.310;2023-08-21T02:32:32;7.6;;;6;;
24867;SDS011;12941;48.698;9.310;2023-08-21T02:33:37;7.6;;;6;;
24867;SDS011;12941;48.698;9.310;2023-08-21T02:34:37;7.6;;;6;;
24867;SDS011;12941;48.698;9.310;2023-08-21T02:35:37;6.3;;;5.5;;
24867;SDS011;12941;48.698;9.310;2023-08-21T02:36:42;6.3;;;5.5;;
24867;SDS011;12941;48.698;9.310;2023-08-21T02:37:42;6.3;;;5.5;;
24867;SDS011;12941;48.698;9.310;2023-08-21T02:38:42;6.3;;;5.5;;
24867;SDS011;12941;48.698;9.310;2023-08-21T02:39:47;6.3;;;5.5;;
24867;SDS011;12941;48.698;9.310;2023-08-21T02:40:47;6.5;;;5.6;;
24867;SDS011;12941;48.698;9.310;2023-08-21T02:41:47;6.5;;;5.6;;
24867;SDS011;12941;48.698;9.310;2023-08-21T02:42:52;6.5;;;5.6;;
24867;SDS011;12941;48.698;9.310;2023-08-21T02:43:57;6.5;;;5.6;;
24867;SDS011;12941;48.698;9.310;2023-08-21T02:45:02;7.6;;;5.6;;
24867;SDS011;12941;48.698;9.310;2023-08-21T02:46:02;7.5;;;5.6;;
24867;SDS011;12941;48.698;9.310;2023-08-21T02:47:07;7.5;;;5.6;;
24867;SDS011;12941;48.698;9.310;2023-08-21T02:48:12;7.5;;;5.6;;
24867;SDS011;12941;48.698;9.310;2023-08-21T02:49:12;7.5;;;5.6;;
24867;SDS011;12941;48.698;9.310;2023-08-21T02:50:17;7;;;5.3;;
24867;SDS011;12941;48.698;9.310;2023-08-21T02:51:17;7;;;5.3;;
24867;SDS011;12941;48.698;9.310;2023-08-21T02:52:22;7;;;5.3;;
24867;SDS011;12941;48.698;9.310;2023-08-21T02:53:22;7;;;5.3;;
24867;SDS011;12941;48.698;9.310;2023-08-21T02:54:27;7;;;5.3;;
24867;SDS011;12941;48.698;9.310;2023-08-21T02:55:32;7;;;5.5;;
24867;SDS011;12941;48.698;9.310;2023-08-21T02:56:32;7;;;5.5;;
24867;SDS011;12941;48.698;9.310;2023-08-21T02:57:32;7;;;5.5;;
24867;SDS011;12941;48.698;9.310;2023-08-21T02:58:37;7;;;5.5;;
24867;SDS011;12941;48.698;9.310;2023-08-21T02:59:40;7;;;5.5;;
24867;SDS011;12941;48.698;9.310;2023-08-21T03:00:42;6.5;;;5.3;;
24867;SDS011;12941;48.698;9.310;2023-08-21T03:01:47;6.5;;;5.3;;
24867;SDS011;12941;48.698;9.310;2023-08-21T03:02:47;6.5;;;5.3;;
24867;SDS011;12941;48.698;9.310;2023-08-21T03:03:52;6.5;;;5.3;;
24867;SDS011;12941;48.698;9.310;2023-08-21T03:04:52;6.5;;;5.3;;
24867;SDS011;12941;48.698;9.310;2023-08-21T03:05:57;6.5;;;5.9;;
24867;SDS011;12941;48.698;9.310;2023-08-21T03:06:57;6.5;;;5.9;;
24867;SDS011;12941;48.698;9.310;2023-08-21T03:07:57;6.5;;;5.9;;
24867;SDS011;12941;48.698;9.310;2023-08-21T03:08:57;6.5;;;5.9;;
24867;SDS011;12941;48.698;9.310;2023-08-21T03:09:57;6.5;;;5.9;;
24867;SDS011;12941;48.698;9.310;2023-08-21T03:10:57;8.4;;;6;;
24867;SDS011;12941;48.698;9.310;2023-08-21T03:12:03;8.4;;;6;;
24867;SDS011;12941;48.698;9.310;2023-08-21T03:13:03;8.4;;;6;;
24867;SDS011;12941;48.698;9.310;2023-08-21T03:14:08;8.4;;;6;;
24867;SDS011;12941;48.698;9.310;2023-08-21T03:15:12;8.4;;;5.4;;
24867;SDS011;12941;48.698;9.310;2023-08-21T03:16:18;8.4;;;5.4;;
24867;SDS011;12941;48.698;9.310;2023-08-21T03:17:18;8.4;;;5.4;;
24867;SDS011;12941;48.698;9.310;2023-08-21T03:18:18;8.4;;;5.4;;
24867;SDS011;12941;48.698;9.310;2023-08-21T03:19:23;8.4;;;5.4;;
24867;SDS011;12941;48.698;9.310;2023-08-21T03:20:28;6.9;;;5.8;;
24867;SDS011;12941;48.698;9.310;2023-08-21T03:21:33;6.9;;;5.8;;
24867;SDS011;12941;48.698;9.310;2023-08-21T03:22:38;6.9;;;5.8;;
24867;SDS011;12941;48.698;9.310;2023-08-21T03:23:43;6.9;;;5.8;;
24867;SDS011;12941;48.698;9.310;2023-08-21T03:24:43;6.9;;;5.8;;
24867;SDS011;12941;48.698;9.310;2023-08-21T03:25:48;6.2;;;5.2;;
24867;SDS011;12941;48.698;9.310;2023-08-21T03:26:48;6.2;;;5.2;;
24867;SDS011;12941;48.698;9.310;2023-08-21T03:27:53;6.2;;;5.2;;
24867;SDS011;12941;48.698;9.310;2023-08-21T03:28:58;6.2;;;5.2;;
24867;SDS011;12941;48.698;9.310;2023-08-21T03:30:03;6.2;;;5.6;;
24867;SDS011;12941;48.698;9.310;2023-08-21T03:31:08;6.2;;;5.6;;
24867;SDS011;12941;48.698;9.310;2023-08-21T03:32:08;6.2;;;5.6;;
24867;SDS011;12941;48.698;9.310;2023-08-21T03:33:13;6.2;;;5.6;;
24867;SDS011;12941;48.698;9.310;2023-08-21T03:34:13;6.2;;;5.6;;
24867;SDS011;12941;48.698;9.310;2023-08-21T03:35:18;7.6;;;5.7;;
24867;SDS011;12941;48.698;9.310;2023-08-21T03:36:18;7.6;;;5.7;;
24867;SDS011;12941;48.698;9.310;2023-08-21T03:37:23;7.6;;;5.7;;
24867;SDS011;12941;48.698;9.310;2023-08-21T03:38:28;7.6;;;5.7;;
24867;SDS011;12941;48.698;9.310;2023-08-21T03:39:28;7.6;;;5.7;;
24867;SDS011;12941;48.698;9.310;2023-08-21T03:40:33;6;;;5.4;;
24867;SDS011;12941;48.698;9.310;2023-08-21T03:41:33;6;;;5.4;;
24867;SDS011;12941;48.698;9.310;2023-08-21T03:42:38;6;;;5.4;;
24867;SDS011;12941;48.698;9.310;2023-08-21T03:43:41;6;;;5.4;;
24867;SDS011;12941;48.698;9.310;2023-08-21T03:44:43;6;;;5.4;;
24867;SDS011;12941;48.698;9.310;2023-08-21T03:45:48;5.5;;;5;;
24867;SDS011;12941;48.698;9.310;2023-08-21T03:46:53;5.5;;;5;;
24867;SDS011;12941;48.698;9.310;2023-08-21T03:47:58;5.5;;;5;;
24867;SDS011;12941;48.698;9.310;2023-08-21T03:48:58;5.5;;;5;;
24867;SDS011;12941;48.698;9.310;2023-08-21T03:50:03;6.9;;;5.2;;
24867;SDS011;12941;48.698;9.310;2023-08-21T03:51:03;6.9;;;5.2;;
24867;SDS011;12941;48.698;9.310;2023-08-21T03:52:03;6.9;;;5.2;;
24867;SDS011;12941;48.698;9.310;2023-08-21T03:53:03;6.9;;;5.2;;
24867;SDS011;12941;48.698;9.310;2023-08-21T03:54:08;6.9;;;5.2;;
24867;SDS011;12941;48.698;9.310;2023-08-21T03:55:13;7;;;5.7;;
24867;SDS011;12941;48.698;9.310;2023-08-21T03:56:13;7;;;5.7;;
24867;SDS011;12941;48.698;9.310;2023-08-21T03:57:18;7;;;5.7;;
24867;SDS011;12941;48.698;9.310;2023-08-21T03:58:23;7;;;5.7;;
24867;SDS011;12941;48.698;9.310;2023-08-21T03:59:23;7;;;5.7;;
24867;SDS011;12941;48.698;9.310;2023-08-21T04:00:23;6.9;;;5.9;;
24867;SDS011;12941;48.698;9.310;2023-08-21T04:01:28;6.9;;;5.9;;
24867;SDS011;12941;48.698;9.310;2023-08-21T04:02:33;6.9;;;5.9;;
24867;SDS011;12941;48.698;9.310;2023-08-21T04:03:33;6.9;;;5.9;;
24867;SDS011;12941;48.698;9.310;2023-08-21T04:04:33;6.9;;;5.9;;
24867;SDS011;12941;48.698;9.310;2023-08-21T04:05:33;6.1;;;5.5;;
24867;SDS011;12941;48.698;9.310;2023-08-21T04:06:38;6.1;;;5.5;;
24867;SDS011;12941;48.698;9.310;2023-08-21T04:07:43;6.1;;;5.5;;
24867;SDS011;12941;48.698;9.310;2023-08-21T04:08:43;6.1;;;5.5;;
24867;SDS011;12941;48.698;9.310;2023-08-21T04:09:48;6.1;;;5.5;;
24867;SDS011;12941;48.698;9.310;2023-08-21T04:10:48;7.4;;;5.6;;
24867;SDS011;12941;48.698;9.310;2023-08-21T04:11:53;7.4;;;5.6;;
24867;SDS011;12941;48.698;9.310;2023-08-21T04:12:53;7.4;;;5.6;;
24867;SDS011;12941;48.698;9.310;2023-08-21T04:13:58;7.4;;;5.6;;
24867;SDS011;12941;48.698;9.310;2023-08-21T04:14:58;7.4;;;5.6;;
24867;SDS011;12941;48.698;9.310;2023-08-21T04:16:03;6.6;;;5.3;;
24867;SDS011;12941;48.698;9.310;2023-08-21T04:17:03;6.6;;;5.3;;
24867;SDS011;12941;48.698;9.310;2023-08-21T04:18:08;6.6;;;5.3;;
24867;SDS011;12941;48.698;9.310;2023-08-21T04:19:08;6.6;;;5.3;;
24867;SDS011;12941;48.698;9.310;2023-08-21T04:20:08;6;;;5.4;;
24867;SDS011;12941;48.698;9.310;2023-08-21T04:21:13;6;;;5.4;;
24867;SDS011;12941;48.698;9.310;2023-08-21T04:22:18;6;;;5.4;;
24867;SDS011;12941;48.698;9.310;2023-08-21T04:23:18;6;;;5.4;;
24867;SDS011;12941;48.698;9.310;2023-08-21T04:24:18;6;;;5.4;;
24867;SDS011;12941;48.698;9.310;2023-08-21T04:25:18;7.5;;;5.9;;
24867;SDS011;12941;48.698;9.310;2023-08-21T04:26:23;7.5;;;5.9;;
24867;SDS011;12941;48.698;9.310;2023-08-21T04:27:28;7.5;;;5.9;;
24867;SDS011;12941;48.698;9.310;2023-08-21T04:28:29;7.5;;;5.9;;
24867;SDS011;12941;48.698;9.310;2023-08-21T04:29:28;7.5;;;5.9;;
24867;SDS011;12941;48.698;9.310;2023-08-21T04:30:33;6.3;;;5.6;;
24867;SDS011;12941;48.698;9.310;2023-08-21T04:31:33;6.3;;;5.6;;
24867;SDS011;12941;48.698;9.310;2023-08-21T04:32:38;6.3;;;5.6;;
24867;SDS011;12941;48.698;9.310;2023-08-21T04:33:43;6.3;;;5.6;;
24867;SDS011;12941;48.698;9.310;2023-08-21T04:34:43;6.3;;;5.6;;
24867;SDS011;12941;48.698;9.310;2023-08-21T04:35:48;7.2;;;5.7;;
24867;SDS011;12941;48.698;9.310;2023-08-21T04:36:48;7.2;;;5.7;;
24867;SDS011;12941;48.698;9.310;2023-08-21T04:37:48;7.2;;;5.7;;
24867;SDS011;12941;48.698;9.310;2023-08-21T04:38:53;7.2;;;5.7;;
24867;SDS011;12941;48.698;9.310;2023-08-21T04:39:53;7.2;;;5.7;;
24867;SDS011;12941;48.698;9.310;2023-08-21T04:40:53;8.1;;;6;;
24867;SDS011;12941;48.698;9.310;2023-08-21T04:41:53;8.1;;;6;;
24867;SDS011;12941;48.698;9.310;2023-08-21T04:42:58;8.1;;;6;;
24867;SDS011;12941;48.698;9.310;2023-08-21T04:43:58;8.1;;;6;;
24867;SDS011;12941;48.698;9.310;2023-08-21T04:45:04;7.6;;;6.6;;
24867;SDS011;12941;48.698;9.310;2023-08-21T04:46:08;7.6;;;6.6;;
24867;SDS011;12941;48.698;9.310;2023-08-21T04:47:24;7.6;;;6.6;;
24867;SDS011;12941;48.698;9.310;2023-08-21T04:48:13;7.6;;;6.6;;
24867;SDS011;12941;48.698;9.310;2023-08-21T04:49:18;7.6;;;6.6;;
24867;SDS011;12941;48.698;9.310;2023-08-21T04:50:18;9.1;;;6;;
24867;SDS011;12941;48.698;9.310;2023-08-21T04:51:18;9.1;;;6;;
24867;SDS011;12941;48.698;9.310;2023-08-21T04:52:19;9.1;;;6;;
24867;SDS011;12941;48.698;9.310;2023-08-21T04:53:23;9.1;;;6;;
24867;SDS011;12941;48.698;9.310;2023-08-21T04:54:29;9.1;;;6;;
24867;SDS011;12941;48.698;9.310;2023-08-21T04:55:29;7.3;;;6.1;;
24867;SDS011;12941;48.698;9.310;2023-08-21T04:56:29;7.3;;;6.1;;
24867;SDS011;12941;48.698;9.310;2023-08-21T04:57:33;7.3;;;6.1;;
24867;SDS011;12941;48.698;9.310;2023-08-21T04:58:33;7.3;;;6.1;;
24867;SDS011;12941;48.698;9.310;2023-08-21T04:59:38;7.3;;;6.1;;
24867;SDS011;12941;48.698;9.310;2023-08-21T05:00:39;7.1;;;5.9;;
24867;SDS011;12941;48.698;9.310;2023-08-21T05:01:43;7.1;;;5.9;;
24867;SDS011;12941;48.698;9.310;2023-08-21T05:02:49;7.1;;;5.9;;
24867;SDS011;12941;48.698;9.310;2023-08-21T05:03:54;7.1;;;5.9;;
24867;SDS011;12941;48.698;9.310;2023-08-21T05:04:58;7.1;;;5.9;;
24867;SDS011;12941;48.698;9.310;2023-08-21T05:05:58;8.3;;;5.7;;
24867;SDS011;12941;48.698;9.310;2023-08-21T05:07:04;8.3;;;5.7;;
24867;SDS011;12941;48.698;9.310;2023-08-21T05:08:08;8.3;;;5.7;;
24867;SDS011;12941;48.698;9.310;2023-08-21T05:09:09;8.3;;;5.7;;
24867;SDS011;12941;48.698;9.310;2023-08-21T05:10:14;7.9;;;6.9;;
24867;SDS011;12941;48.698;9.310;2023-08-21T05:11:14;7.9;;;6.9;;
24867;SDS011;12941;48.698;9.310;2023-08-21T05:12:18;7.9;;;6.9;;
24867;SDS011;12941;48.698;9.310;2023-08-21T05:13:19;7.9;;;6.9;;
24867;SDS011;12941;48.698;9.310;2023-08-21T05:14:19;7.9;;;6.9;;
24867;SDS011;12941;48.698;9.310;2023-08-21T05:15:23;7.1;;;6.3;;
24867;SDS011;12941;48.698;9.310;2023-08-21T05:16:24;7.1;;;6.3;;
24867;SDS011;12941;48.698;9.310;2023-08-21T05:17:24;7.1;;;6.3;;
24867;SDS011;12941;48.698;9.310;2023-08-21T05:18:29;7.1;;;6.3;;
24867;SDS011;12941;48.698;9.310;2023-08-21T05:19:29;7.1;;;6.3;;
24867;SDS011;12941;48.698;9.310;2023-08-21T05:20:34;6.7;;;6;;
24867;SDS011;12941;48.698;9.310;2023-08-21T05:21:34;6.7;;;6;;
24867;SDS011;12941;48.698;9.310;2023-08-21T05:22:34;6.7;;;6;;
24867;SDS011;12941;48.698;9.310;2023-08-21T05:23:39;6.7;;;6;;
24867;SDS011;12941;48.698;9.310;2023-08-21T05:24:44;6.7;;;6;;
24867;SDS011;12941;48.698;9.310;2023-08-21T05:25:49;7.3;;;6.6;;
24867;SDS011;12941;48.698;9.310;2023-08-21T05:26:49;7.3;;;6.6;;
24867;SDS011;12941;48.698;9.310;2023-08-21T05:27:49;7.3;;;6.6;;
24867;SDS011;12941;48.698;9.310;2023-08-21T05:28:49;7.3;;;6.6;;
24867;SDS011;12941;48.698;9.310;2023-08-21T05:29:49;7.3;;;6.6;;
24867;SDS011;12941;48.698;9.310;2023-08-21T05:30:54;8.1;;;6.5;;
24867;SDS011;12941;48.698;9.310;2023-08-21T05:31:59;8.1;;;6.5;;
24867;SDS011;12941;48.698;9.310;2023-08-21T05:33:04;8.1;;;6.5;;
24867;SDS011;12941;48.698;9.310;2023-08-21T05:34:09;8.1;;;6.5;;
24867;SDS011;12941;48.698;9.310;2023-08-21T05:35:14;9.2;;;7;;
24867;SDS011;12941;48.698;9.310;2023-08-21T05:36:19;9.2;;;7;;
24867;SDS011;12941;48.698;9.310;2023-08-21T05:37:19;9.2;;;7;;
24867;SDS011;12941;48.698;9.310;2023-08-21T05:38:24;9.2;;;7;;
24867;SDS011;12941;48.698;9.310;2023-08-21T05:39:24;9.2;;;7;;
24867;SDS011;12941;48.698;9.310;2023-08-21T05:40:29;8.7;;;7.8;;
24867;SDS011;12941;48.698;9.310;2023-08-21T05:41:29;8.7;;;7.8;;
24867;SDS011;12941;48.698;9.310;2023-08-21T05:42:34;8.7;;;7.8;;
24867;SDS011;12941;48.698;9.310;2023-08-21T05:43:34;8.7;;;7.8;;
24867;SDS011;12941;48.698;9.310;2023-08-21T05:44:39;8.7;;;7.8;;
24867;SDS011;12941;48.698;9.310;2023-08-21T05:45:44;9.1;;;7.3;;
24867;SDS011;12941;48.698;9.310;2023-08-21T05:46:44;9.1;;;7.3;;
24867;SDS011;12941;48.698;9.310;2023-08-21T05:47:49;9.1;;;7.3;;
24867;SDS011;12941;48.698;9.310;2023-08-21T05:48:54;9.1;;;7.3;;
24867;SDS011;12941;48.698;9.310;2023-08-21T05:49:59;9.1;;;7.3;;
24867;SDS011;12941;48.698;9.310;2023-08-21T05:50:59;8.7;;;7.6;;
24867;SDS011;12941;48.698;9.310;2023-08-21T05:52:04;8.7;;;7.6;;
24867;SDS011;12941;48.698;9.310;2023-08-21T05:53:04;8.7;;;7.6;;
24867;SDS011;12941;48.698;9.310;2023-08-21T05:54:04;8.7;;;7.6;;
24867;SDS011;12941;48.698;9.310;2023-08-21T05:55:05;11.6;;;8;;
24867;SDS011;12941;48.698;9.310;2023-08-21T05:56:09;11.3;;;7.9;;
24867;SDS011;12941;48.698;9.310;2023-08-21T05:57:14;11.3;;;7.9;;
24867;SDS011;12941;48.698;9.310;2023-08-21T05:58:19;11.3;;;7.9;;
24867;SDS011;12941;48.698;9.310;2023-08-21T05:59:26;11.3;;;7.9;;
24867;SDS011;12941;48.698;9.310;2023-08-21T06:00:24;9.6;;;7.7;;
24867;SDS011;12941;48.698;9.310;2023-08-21T06:01:24;9.6;;;7.7;;
24867;SDS011;12941;48.698;9.310;2023-08-21T06:02:24;9.6;;;7.7;;
24867;SDS011;12941;48.698;9.310;2023-08-21T06:03:29;9.6;;;7.7;;
24867;SDS011;12941;48.698;9.310;2023-08-21T06:04:34;9.6;;;7.7;;
24867;SDS011;12941;48.698;9.310;2023-08-21T06:05:39;9.7;;;7.6;;
24867;SDS011;12941;48.698;9.310;2023-08-21T06:06:39;9.7;;;7.6;;
24867;SDS011;12941;48.698;9.310;2023-08-21T06:07:39;9.7;;;7.6;;
24867;SDS011;12941;48.698;9.310;2023-08-21T06:08:44;9.7;;;7.6;;
24867;SDS011;12941;48.698;9.310;2023-08-21T06:09:49;9.7;;;7.6;;
24867;SDS011;12941;48.698;9.310;2023-08-21T06:10:50;9.8;;;7.9;;
24867;SDS011;12941;48.698;9.310;2023-08-21T06:11:54;9.8;;;7.9;;
24867;SDS011;12941;48.698;9.310;2023-08-21T06:12:59;9.8;;;7.9;;
24867;SDS011;12941;48.698;9.310;2023-08-21T06:13:59;9.8;;;7.9;;
24867;SDS011;12941;48.698;9.310;2023-08-21T06:15:05;9.5;;;7.8;;
24867;SDS011;12941;48.698;9.310;2023-08-21T06:16:09;9.5;;;7.7;;
24867;SDS011;12941;48.698;9.310;2023-08-21T06:17:09;9.5;;;7.7;;
24867;SDS011;12941;48.698;9.310;2023-08-21T06:18:09;9.5;;;7.7;;
24867;SDS011;12941;48.698;9.310;2023-08-21T06:19:09;9.5;;;7.7;;
24867;SDS011;12941;48.698;9.310;2023-08-21T06:20:09;8.8;;;7.9;;
24867;SDS011;12941;48.698;9.310;2023-08-21T06:21:14;8.8;;;7.9;;
24867;SDS011;12941;48.698;9.310;2023-08-21T06:22:19;8.8;;;7.9;;
24867;SDS011;12941;48.698;9.310;2023-08-21T06:23:24;8.8;;;7.9;;
24867;SDS011;12941;48.698;9.310;2023-08-21T06:24:24;8.8;;;7.9;;
24867;SDS011;12941;48.698;9.310;2023-08-21T06:25:29;10;;;8.2;;
24867;SDS011;12941;48.698;9.310;2023-08-21T06:26:29;10;;;8.2;;
24867;SDS011;12941;48.698;9.310;2023-08-21T06:27:30;10;;;8.2;;
24867;SDS011;12941;48.698;9.310;2023-08-21T06:28:29;10;;;8.2;;
24867;SDS011;12941;48.698;9.310;2023-08-21T06:29:34;10;;;8.2;;
24867;SDS011;12941;48.698;9.310;2023-08-21T06:30:34;9.1;;;8;;